createdAt,value
2019-01-25T00:00:02.404Z,117.97
2019-01-25T00:03:20.792Z,121.43
2019-01-25T00:06:37.601Z,121.93
2019-01-25T00:09:43.056Z,111.80
2019-01-25T00:13:00.385Z,130.63
2019-01-25T00:16:20.356Z,127.17
2019-01-25T00:19:25.792Z,125.00
2019-01-25T00:26:29.500Z,116.67
2019-01-25T00:29:46.325Z,122.17
2019-01-25T00:33:05.090Z,118.07
2019-01-25T00:36:36.817Z,129.20
2019-01-25T00:39:53.635Z,129.77
2019-01-25T00:49:56.991Z,121.00
2019-01-25T00:53:15.085Z,116.03
2019-01-25T00:56:33.772Z,111.40
2019-01-25T00:59:50.412Z,114.70
2019-01-25T01:03:07.797Z,118.37
2019-01-25T01:06:13.131Z,134.63
2019-01-25T01:09:30.003Z,117.20
2019-01-25T01:12:47.069Z,126.20
2019-01-25T01:15:52.527Z,117.60
2019-01-25T01:19:09.646Z,128.93
2019-01-25T01:22:26.702Z,132.73
2019-01-25T01:25:44.223Z,119.43
2019-01-25T01:29:01.386Z,117.47
2019-01-25T01:32:20.526Z,131.97
2019-01-25T01:35:26.755Z,124.90
2019-01-25T01:38:51.072Z,112.93
2019-01-25T01:42:07.816Z,132.20
2019-01-25T01:45:25.365Z,124.90
2019-01-25T01:48:44.141Z,116.83
2019-01-25T01:51:49.566Z,116.50
2019-01-25T01:55:14.182Z,110.77
2019-01-25T02:02:24.885Z,122.73
2019-01-25T02:05:29.082Z,114.40
2019-01-25T02:08:47.510Z,110.57
2019-01-25T02:11:52.992Z,105.50
2019-01-25T02:14:58.225Z,94.10
2019-01-25T02:18:15.414Z,101.80
2019-01-25T02:21:35.166Z,92.87
2019-01-25T02:24:52.255Z,94.43
2019-01-25T02:28:09.287Z,97.90
2019-01-25T02:31:26.552Z,92.77
2019-01-25T02:34:43.775Z,99.17
2019-01-25T02:38:00.597Z,102.10
2019-01-25T02:41:17.508Z,81.70
2019-01-25T02:44:23.043Z,89.97
2019-01-25T02:47:40.216Z,93.90
2019-01-25T02:51:00.471Z,88.33
2019-01-25T02:54:20.716Z,85.33
2019-01-25T02:57:36.699Z,88.07
2019-01-25T03:00:53.475Z,104.73
2019-01-25T03:03:58.825Z,88.93
2019-01-25T03:07:15.747Z,93.10
2019-01-25T03:10:32.717Z,91.27
2019-01-25T03:13:38.077Z,93.93
2019-01-25T03:16:43.300Z,97.30
2019-01-25T03:20:01.945Z,94.07
2019-01-25T03:27:04.005Z,82.27
2019-01-25T03:30:21.337Z,81.93
2019-01-25T03:33:41.250Z,78.77
2019-01-25T03:36:58.264Z,82.00
2019-01-25T03:40:03.626Z,79.30
2019-01-25T03:43:20.973Z,85.93
2019-01-25T03:46:38.454Z,86.20
2019-01-25T03:49:43.885Z,86.33
2019-01-25T03:53:08.281Z,88.70
2019-01-25T03:56:27.944Z,80.93
2019-01-25T03:59:44.636Z,82.77
2019-01-25T04:03:03.446Z,92.37
2019-01-25T04:06:08.715Z,94.13
2019-01-25T04:09:25.402Z,84.53
2019-01-25T04:12:42.917Z,85.70
2019-01-25T04:16:00.159Z,87.80
2019-01-25T04:19:08.089Z,87.37
2019-01-25T04:22:13.530Z,74.43
2019-01-25T04:25:20.926Z,81.83
2019-01-25T04:28:26.336Z,73.37
2019-01-25T04:31:43.686Z,80.80
2019-01-25T04:35:00.582Z,84.33
2019-01-25T04:38:05.905Z,75.80
2019-01-25T04:41:12.025Z,72.97
2019-01-25T04:44:34.905Z,72.63
2019-01-25T04:47:40.160Z,65.77
2019-01-25T04:50:45.445Z,61.33
2019-01-25T04:53:50.788Z,58.70
2019-01-25T04:57:07.541Z,67.90
2019-01-25T05:00:24.579Z,70.23
2019-01-25T05:03:29.864Z,67.50
2019-01-25T05:06:47.166Z,63.50
2019-01-25T05:10:04.735Z,69.17
2019-01-25T05:13:21.817Z,70.40
2019-01-25T05:16:39.369Z,68.73
2019-01-25T05:19:44.696Z,68.50
2019-01-25T05:23:01.099Z,69.10
2019-01-25T05:26:18.126Z,61.40
2019-01-25T05:29:34.599Z,63.07
2019-01-25T05:32:53.933Z,61.77
2019-01-25T05:35:59.265Z,64.50
2019-01-25T05:39:23.550Z,72.60
2019-01-25T05:42:40.994Z,76.47
2019-01-25T05:45:58.507Z,70.43
2019-01-25T05:49:17.849Z,72.40
2019-01-25T05:52:35.489Z,66.20
2019-01-25T05:55:40.945Z,64.97
2019-01-25T05:59:21.726Z,72.83
2019-01-25T06:02:18.021Z,78.43
2019-01-25T06:05:35.249Z,73.77
2019-01-25T06:08:52.411Z,73.60
2019-01-25T06:12:09.494Z,69.30
2019-01-25T06:15:27.805Z,72.67
2019-01-25T06:18:44.739Z,76.10
2019-01-25T06:22:05.394Z,73.20
2019-01-25T06:25:21.392Z,79.27
2019-01-25T06:28:26.771Z,79.63
2019-01-25T06:31:43.525Z,75.07
2019-01-25T06:35:03.040Z,72.83
2019-01-25T06:38:21.610Z,72.10
2019-01-25T06:41:43.983Z,70.90
2019-01-25T06:44:45.486Z,72.30
2019-01-25T06:48:09.974Z,74.30
2019-01-25T06:51:29.906Z,70.63
2019-01-25T06:54:47.229Z,65.53
2019-01-25T06:58:24.315Z,73.40
2019-01-25T07:01:48.810Z,71.50
2019-01-25T07:04:54.169Z,69.97
2019-01-25T07:12:07.299Z,78.57
2019-01-25T07:15:28.361Z,64.83
2019-01-25T07:18:47.063Z,63.73
2019-01-25T07:22:04.508Z,69.87
2019-01-25T07:25:10.575Z,69.83
2019-01-25T07:28:34.850Z,67.53
2019-01-25T07:31:40.128Z,78.00
2019-01-25T07:34:45.446Z,70.20
2019-01-25T07:37:50.718Z,66.40
2019-01-25T07:40:56.018Z,70.33
2019-01-25T07:44:01.295Z,73.20
2019-01-25T07:47:25.840Z,75.47
2019-01-25T07:50:50.265Z,65.50
2019-01-25T07:54:08.594Z,68.60
2019-01-25T07:57:13.965Z,76.67
2019-01-25T08:00:34.032Z,72.70
2019-01-25T08:03:39.361Z,69.53
2019-01-25T08:06:56.214Z,71.37
2019-01-25T08:10:12.964Z,69.93
2019-01-25T08:13:32.876Z,68.13
2019-01-25T08:16:38.360Z,70.07
2019-01-25T08:19:55.359Z,79.37
2019-01-25T08:23:12.539Z,63.93
2019-01-25T08:26:29.631Z,70.77
2019-01-25T08:29:36.471Z,64.00
2019-01-25T08:33:00.831Z,76.83
2019-01-25T08:36:17.478Z,71.47
2019-01-25T08:39:34.532Z,69.87
2019-01-25T08:42:54.633Z,64.80
2019-01-25T08:46:11.370Z,73.93
2019-01-25T08:49:16.788Z,68.10
2019-01-25T08:52:41.218Z,69.97
2019-01-25T08:55:58.002Z,68.87
2019-01-25T08:59:18.955Z,67.57
2019-01-25T09:02:35.830Z,63.90
2019-01-25T09:05:52.638Z,72.83
2019-01-25T09:09:09.881Z,63.97
2019-01-25T09:12:15.153Z,69.50
2019-01-25T09:15:41.783Z,71.33
2019-01-25T09:18:58.927Z,69.80
2019-01-25T09:22:18.804Z,72.30
2019-01-25T09:25:35.944Z,72.87
2019-01-25T09:28:41.248Z,71.70
2019-01-25T09:32:05.662Z,65.63
2019-01-25T09:35:22.773Z,65.50
2019-01-25T09:38:39.218Z,74.33
2019-01-25T09:41:56.520Z,64.17
2019-01-25T09:45:13.693Z,62.63
2019-01-25T09:48:19.128Z,66.17
2019-01-25T09:51:43.427Z,58.70
2019-01-25T09:55:00.549Z,68.80
2019-01-25T09:58:16.957Z,62.53
2019-01-25T10:04:39.724Z,68.80
2019-01-25T10:07:56.762Z,62.77
2019-01-25T10:11:03.735Z,62.17
2019-01-25T10:14:28.045Z,57.47
2019-01-25T10:17:45.554Z,57.77
2019-01-25T10:21:02.820Z,59.40
2019-01-25T10:24:19.781Z,63.80
2019-01-25T10:27:36.706Z,57.87
2019-01-25T10:30:53.705Z,60.13
2019-01-25T10:34:12.355Z,65.67
2019-01-25T10:37:29.793Z,79.03
2019-01-25T10:40:35.168Z,81.70
2019-01-25T10:43:52.573Z,68.30
2019-01-25T10:47:11.545Z,81.90
2019-01-25T10:54:05.155Z,71.70
2019-01-25T10:57:10.780Z,59.97
2019-01-25T11:00:27.709Z,61.13
2019-01-25T11:03:49.264Z,59.10
2019-01-25T11:06:47.812Z,61.20
2019-01-25T11:10:12.829Z,56.80
2019-01-25T11:13:20.505Z,57.70
2019-01-25T11:16:25.790Z,61.80
2019-01-25T11:19:31.135Z,55.33
2019-01-25T11:22:36.435Z,56.90
2019-01-25T11:25:42.060Z,59.83
2019-01-25T11:28:47.337Z,49.43
2019-01-25T11:31:52.788Z,57.30
2019-01-25T11:34:58.148Z,53.80
2019-01-25T11:38:03.434Z,51.53
2019-01-25T11:41:13.428Z,50.37
2019-01-25T11:44:18.747Z,54.10
2019-01-25T11:47:24.179Z,46.77
2019-01-25T11:50:29.399Z,49.60
2019-01-25T11:53:35.963Z,56.57
2019-01-25T11:56:41.366Z,76.47
2019-01-25T11:59:46.687Z,90.67
2019-01-25T12:02:52.154Z,58.47
2019-01-25T12:05:57.403Z,51.90
2019-01-25T12:09:02.832Z,59.87
2019-01-25T12:12:10.825Z,63.33
2019-01-25T12:15:17.218Z,58.80
2019-01-25T12:18:22.559Z,58.00
2019-01-25T12:21:30.725Z,82.33
2019-01-25T12:24:36.058Z,53.77
2019-01-25T12:27:41.514Z,53.20
2019-01-25T12:30:46.874Z,68.03
2019-01-25T12:33:52.234Z,66.83
2019-01-25T12:36:57.709Z,52.57
2019-01-25T12:40:03.692Z,60.97
2019-01-25T12:43:08.970Z,56.73
2019-01-25T12:46:14.355Z,59.33
2019-01-25T12:49:19.927Z,78.43
2019-01-25T12:52:26.372Z,68.43
2019-01-25T12:55:32.658Z,95.33
2019-01-25T12:58:38.277Z,57.33
2019-01-25T13:01:43.593Z,58.20
2019-01-25T13:04:48.977Z,99.73
2019-01-25T13:07:54.308Z,60.50
2019-01-25T13:10:59.722Z,62.57
2019-01-25T13:14:05.103Z,63.10
2019-01-25T13:17:10.387Z,73.83
2019-01-25T13:20:19.159Z,56.50
2019-01-25T13:23:24.475Z,56.27
2019-01-25T13:26:29.778Z,61.23
2019-01-25T13:29:35.113Z,64.23
2019-01-25T13:32:40.504Z,60.97
2019-01-25T13:35:45.846Z,55.50
2019-01-25T13:38:51.233Z,60.17
2019-01-25T13:41:56.498Z,59.13
2019-01-25T13:45:01.746Z,55.10
2019-01-25T13:48:07.132Z,50.33
2019-01-25T13:51:12.398Z,65.03
2019-01-25T13:54:17.742Z,55.03
2019-01-25T13:57:23.102Z,56.10
2019-01-25T14:00:32.914Z,51.43
2019-01-25T14:03:38.251Z,53.90
2019-01-25T14:06:44.987Z,51.90
2019-01-25T14:09:50.289Z,49.43
2019-01-25T14:12:56.583Z,49.07
2019-01-25T14:16:01.918Z,49.13
2019-01-25T14:19:07.239Z,44.97
2019-01-25T14:22:12.622Z,53.60
2019-01-25T14:25:17.918Z,45.83
2019-01-25T14:28:23.209Z,44.93
2019-01-25T14:31:28.574Z,47.30
2019-01-25T14:34:34.012Z,77.03
2019-01-25T14:37:39.332Z,53.67
2019-01-25T14:40:44.667Z,57.43
2019-01-25T14:43:54.388Z,52.07
2019-01-25T14:46:57.058Z,48.43
2019-01-25T14:50:02.319Z,52.47
2019-01-25T14:53:08.673Z,57.07
2019-01-25T14:56:15.271Z,54.40
2019-01-25T14:59:20.708Z,55.03
2019-01-25T15:02:26.101Z,56.20
2019-01-25T15:05:31.472Z,52.47
2019-01-25T15:08:36.757Z,55.53
2019-01-25T15:11:42.085Z,56.27
2019-01-25T15:14:47.404Z,59.20
2019-01-25T15:17:52.850Z,66.50
2019-01-25T15:20:58.162Z,55.03
2019-01-25T15:24:03.486Z,65.43
2019-01-25T15:27:08.762Z,68.93
2019-01-25T15:30:19.897Z,67.00
2019-01-25T15:33:25.178Z,73.40
2019-01-25T15:36:30.432Z,78.97
2019-01-25T15:39:35.713Z,75.90
2019-01-25T15:42:41.045Z,79.60
2019-01-25T15:45:46.418Z,88.37
2019-01-25T15:48:51.680Z,72.53
2019-01-25T15:51:56.967Z,81.17
2019-01-25T15:55:02.278Z,79.07
2019-01-25T15:58:08.643Z,77.60
2019-01-25T16:01:13.857Z,79.23
2019-01-25T16:04:20.334Z,76.17
2019-01-25T16:07:25.642Z,91.10
2019-01-25T16:10:31.018Z,82.67
2019-01-25T16:13:36.342Z,95.00
2019-01-25T16:16:41.661Z,99.63
2019-01-25T16:19:46.939Z,103.00
2019-01-25T16:22:52.392Z,93.30
2019-01-25T16:25:57.832Z,85.60
2019-01-25T16:29:03.502Z,95.80
2019-01-25T16:32:08.887Z,98.57
2019-01-25T16:35:14.972Z,93.30
2019-01-25T16:38:20.308Z,99.17
2019-01-25T16:41:25.632Z,95.87
2019-01-25T16:44:30.901Z,103.43
2019-01-25T16:47:36.291Z,80.33
2019-01-25T16:50:41.837Z,91.73
2019-01-25T16:53:47.247Z,105.50
2019-01-25T16:56:52.515Z,93.73
2019-01-25T16:59:57.824Z,101.77
2019-01-25T17:03:03.217Z,92.37
2019-01-25T17:06:08.568Z,115.53
2019-01-25T17:09:15.923Z,99.97
2019-01-25T17:12:21.337Z,98.37
2019-01-25T17:15:28.968Z,93.27
2019-01-25T17:18:34.402Z,91.57
2019-01-25T17:21:39.675Z,86.47
2019-01-25T17:24:44.988Z,90.70
2019-01-25T17:27:50.267Z,102.23
2019-01-25T17:30:56.475Z,98.80
2019-01-25T17:34:01.887Z,97.77
2019-01-25T17:37:07.248Z,94.77
2019-01-25T17:40:14.802Z,96.67
2019-01-25T17:43:20.195Z,97.33
2019-01-25T17:46:25.630Z,101.17
2019-01-25T17:49:31.158Z,103.90
2019-01-25T17:52:36.405Z,93.20
2019-01-25T17:55:41.703Z,85.37
2019-01-25T17:58:47.055Z,90.07
2019-01-25T18:01:52.426Z,83.80
2019-01-25T18:04:57.726Z,84.23
2019-01-25T18:08:03.015Z,76.83
2019-01-25T18:11:08.361Z,91.10
2019-01-25T18:14:13.730Z,78.87
2019-01-25T18:17:19.049Z,78.50
2019-01-25T18:20:24.380Z,86.00
2019-01-25T18:23:29.772Z,80.90
2019-01-25T18:26:35.018Z,73.47
2019-01-25T18:29:50.627Z,77.40
2019-01-25T18:32:55.947Z,70.43
2019-01-25T18:36:01.262Z,68.17
2019-01-25T18:39:09.033Z,77.13
2019-01-25T18:42:14.416Z,65.50
2019-01-25T18:45:19.765Z,69.27
2019-01-25T18:48:25.056Z,68.20
2019-01-25T18:51:30.348Z,57.50
2019-01-25T18:54:35.755Z,58.63
2019-01-25T18:57:41.037Z,63.40
2019-01-25T19:00:46.346Z,58.80
2019-01-25T19:03:51.646Z,54.70
2019-01-25T19:06:56.870Z,51.77
2019-01-25T19:10:02.226Z,54.17
2019-01-25T19:13:07.582Z,58.47
2019-01-25T19:16:12.926Z,54.43
2019-01-25T19:19:18.228Z,51.43
2019-01-25T19:22:23.483Z,41.00
2019-01-25T19:25:28.765Z,45.63
2019-01-25T19:28:34.081Z,48.53
2019-01-25T19:31:39.342Z,49.13
2019-01-25T19:34:47.431Z,40.80
2019-01-25T19:37:52.740Z,47.13
2019-01-25T19:40:58.088Z,48.37
2019-01-25T19:44:03.492Z,43.90
2019-01-25T19:47:08.793Z,45.20
2019-01-25T19:50:15.785Z,43.00
2019-01-25T19:53:21.124Z,45.37
2019-01-25T19:56:26.531Z,41.10
2019-01-25T19:59:31.962Z,37.77
2019-01-25T20:02:37.311Z,41.77
2019-01-25T20:05:42.610Z,39.37
2019-01-25T20:08:47.922Z,45.20
2019-01-25T20:11:53.275Z,37.27
2019-01-25T20:14:58.609Z,34.90
2019-01-25T20:18:04.023Z,37.57
2019-01-25T20:21:09.465Z,39.83
2019-01-25T20:24:15.665Z,40.83
2019-01-25T20:27:21.176Z,31.17
2019-01-25T20:30:28.632Z,31.33
2019-01-25T20:33:34.945Z,36.47
2019-01-25T20:36:41.096Z,34.90
2019-01-25T20:39:46.499Z,32.40
2019-01-25T20:42:51.818Z,36.20
2019-01-25T20:45:57.516Z,33.33
2019-01-25T20:49:03.653Z,34.10
2019-01-25T20:52:08.980Z,29.77
2019-01-25T20:55:15.927Z,31.73
2019-01-25T20:58:21.298Z,32.80
2019-01-25T21:01:27.026Z,31.57
2019-01-25T21:04:32.326Z,35.87
2019-01-25T21:07:37.856Z,31.13
2019-01-25T21:10:46.431Z,31.63
2019-01-25T21:13:54.045Z,30.30
2019-01-25T21:16:59.401Z,28.80
2019-01-25T21:20:05.720Z,31.13
2019-01-25T21:23:11.041Z,36.13
2019-01-25T21:26:16.351Z,32.07
2019-01-25T21:29:21.595Z,25.63
2019-01-25T21:32:27.565Z,29.47
2019-01-25T21:35:32.974Z,29.00
2019-01-25T21:38:40.711Z,29.03
2019-01-25T21:41:46.081Z,30.10
2019-01-25T21:44:51.559Z,26.33
2019-01-25T21:47:57.303Z,30.77
2019-01-25T21:51:04.948Z,25.50
2019-01-25T21:54:10.360Z,26.37
2019-01-25T21:57:15.857Z,25.10
2019-01-25T22:00:23.324Z,21.80
2019-01-25T22:03:28.689Z,24.97
2019-01-25T22:06:34.818Z,25.17
2019-01-25T22:09:40.187Z,26.73
2019-01-25T22:12:45.964Z,24.87
2019-01-25T22:15:51.365Z,25.90
2019-01-25T22:18:56.712Z,20.33
2019-01-25T22:22:02.559Z,25.00
2019-01-25T22:25:10.124Z,24.00
2019-01-25T22:28:15.515Z,20.57
2019-01-25T22:31:21.256Z,25.07
2019-01-25T22:34:35.479Z,24.30
2019-01-25T22:37:40.792Z,22.80
2019-01-25T22:40:46.104Z,26.37
2019-01-25T22:43:54.894Z,22.80
2019-01-25T22:47:01.218Z,22.17
2019-01-25T22:50:16.177Z,24.43
2019-01-25T22:53:21.262Z,20.80
2019-01-25T22:56:26.642Z,22.13
2019-01-25T22:59:32.191Z,22.17
2019-01-25T23:02:37.848Z,22.37
2019-01-25T23:06:18.207Z,22.37
2019-01-25T23:09:41.703Z,22.57
2019-01-25T23:12:47.085Z,17.80
2019-01-25T23:15:52.487Z,23.47
2019-01-25T23:18:57.740Z,23.10
2019-01-25T23:22:04.221Z,23.73
2019-01-25T23:25:10.497Z,21.73
2019-01-25T23:28:15.801Z,19.90
2019-01-25T23:31:21.034Z,24.23
2019-01-25T23:34:26.339Z,20.57
2019-01-25T23:37:31.606Z,19.93
2019-01-25T23:40:36.897Z,21.47
2019-01-25T23:43:42.114Z,21.50
2019-01-25T23:46:47.309Z,21.40
2019-01-25T23:49:52.611Z,22.90
2019-01-25T23:52:57.935Z,19.40
2019-01-25T23:56:03.216Z,23.43
2019-01-25T23:59:08.530Z,21.00
